Time;durP1;ratioP1;P1;durP2;ratioP2;P2;SDS_P1;SDS_P2;PMS_P1;PMS_P2;Temp;Humidity;BMP_temperature;BMP_pressure;BME280_temperature;BME280_humidity;BME280_pressure;Samples;Min_cycle;Max_cycle;Signal;HPM_P1;HPM_P2
2022/07/29 00:00:44;;;;;;;1.95;1.48;;;15.10;99.90;;;;;;5076330;28;20040;-79
2022/07/29 00:03:10;;;;;;;1.90;1.10;;;15.10;99.90;;;;;;5076144;28;20055;-78
2022/07/29 00:05:36;;;;;;;1.80;1.10;;;15.10;99.90;;;;;;5075046;28;20094;-78
2022/07/29 00:08:01;;;;;;;3.40;1.17;;;15.10;99.90;;;;;;5075400;28;20031;-81
2022/07/29 00:10:27;;;;;;;2.67;1.13;;;15.10;99.90;;;;;;5075436;28;20032;-79
2022/07/29 00:12:53;;;;;;;4.80;1.55;;;15.10;99.90;;;;;;5075738;28;20400;-78
2022/07/29 00:15:18;;;;;;;2.83;1.10;;;15.10;99.90;;;;;;5075501;28;20040;-79
2022/07/29 00:17:44;;;;;;;2.55;1.00;;;15.10;99.90;;;;;;5075273;28;20040;-78
2022/07/29 00:20:09;;;;;;;4.57;1.00;;;15.00;99.90;;;;;;5074684;28;20036;-81
2022/07/29 00:22:38;;;;;;;3.03;1.20;;;15.00;99.90;;;;;;5075004;28;20035;-78
2022/07/29 00:25:04;;;;;;;2.28;1.10;;;15.00;99.90;;;;;;5075244;28;20067;-80
2022/07/29 00:27:30;;;;;;;1.67;0.93;;;15.00;99.90;;;;;;5074912;28;20074;-81
2022/07/29 00:29:55;;;;;;;1.95;1.20;;;15.00;99.90;;;;;;5074804;28;20044;-78
2022/07/29 00:32:21;;;;;;;3.10;1.52;;;15.00;99.90;;;;;;5075200;28;20111;-78
2022/07/29 00:37:30;;;;;;;3.63;1.30;;;15.00;99.90;;;;;;5077550;28;20486;-80
2022/07/29 00:39:56;;;;;;;1.67;1.27;;;15.00;99.90;;;;;;5056753;28;20089;-79
2022/07/29 00:42:22;;;;;;;1.23;1.10;;;15.00;99.90;;;;;;5092657;28;20127;-79
2022/07/29 00:44:47;;;;;;;3.72;1.33;;;15.00;99.90;;;;;;5074548;28;20041;-79
2022/07/29 00:47:13;;;;;;;1.42;1.02;;;14.90;99.90;;;;;;5074059;28;20506;-79
2022/07/29 00:49:40;;;;;;;2.35;1.42;;;15.00;99.90;;;;;;5092260;28;20505;-80
2022/07/29 00:52:07;;;;;;;3.50;1.13;;;15.00;99.90;;;;;;5073271;28;20085;-78
2022/07/29 00:54:34;;;;;;;14.85;8.60;;;15.00;99.90;;;;;;5084163;28;20039;-79
2022/07/29 00:57:00;;;;;;;3.15;1.80;;;15.00;99.90;;;;;;5089664;28;20055;-79
2022/07/29 00:59:27;;;;;;;3.60;1.40;;;14.90;99.90;;;;;;5071506;28;20066;-79
2022/07/29 01:01:54;;;;;;;4.18;1.90;;;14.90;99.90;;;;;;5072455;28;20048;-81
2022/07/29 01:04:20;;;;;;;4.07;1.38;;;15.00;99.90;;;;;;5054356;28;20051;-78
2022/07/29 01:06:48;;;;;;;4.25;1.67;;;14.90;99.90;;;;;;5054249;28;20040;-78
2022/07/29 01:09:15;;;;;;;4.50;1.60;;;15.00;99.90;;;;;;5072299;28;20040;-78
2022/07/29 01:11:41;;;;;;;2.25;1.27;;;14.90;99.90;;;;;;5053154;28;20051;-78
2022/07/29 01:14:08;;;;;;;3.88;1.30;;;14.90;99.90;;;;;;5054063;28;20107;-79
2022/07/29 01:16:41;;;;;;;4.55;1.25;;;15.00;99.90;;;;;;5054036;28;20044;-78
2022/07/29 01:19:33;;;;;;;3.45;1.42;;;15.00;99.90;;;;;;5053875;28;20040;-80
2022/07/29 01:22:09;;;;;;;2.60;1.50;;;15.00;99.90;;;;;;5069767;28;20048;-78
2022/07/29 01:25:03;;;;;;;1.75;1.42;;;15.00;99.90;;;;;;5091213;28;20043;-78
2022/07/29 01:27:56;;;;;;;2.17;1.98;;;14.90;99.90;;;;;;5074018;28;20047;-77
2022/07/29 01:30:24;;;;;;;1.77;1.40;;;15.00;99.90;;;;;;5073980;28;20510;-78
2022/07/29 01:32:58;;;;;;;2.60;1.30;;;15.00;99.90;;;;;;5073782;28;20048;-79
2022/07/29 01:35:28;;;;;;;3.33;1.98;;;15.00;99.90;;;;;;5074053;28;20043;-78
2022/07/29 01:38:20;;;;;;;3.22;1.30;;;15.00;99.90;;;;;;5074324;28;20403;-81
2022/07/29 01:41:05;;;;;;;2.17;1.30;;;15.00;99.90;;;;;;5062990;28;20063;-78
2022/07/29 01:43:49;;;;;;;6.07;1.70;;;14.90;99.90;;;;;;5074229;28;20044;-78
2022/07/29 01:46:21;;;;;;;2.83;1.00;;;15.00;99.90;;;;;;5073847;28;20122;-78
2022/07/29 01:48:57;;;;;;;1.48;1.10;;;15.00;99.90;;;;;;5074110;28;20394;-78
2022/07/29 01:51:34;;;;;;;4.72;1.40;;;15.00;99.90;;;;;;5073269;28;20047;-77
2022/07/29 01:54:32;;;;;;;6.10;1.60;;;15.00;99.90;;;;;;5073961;28;20036;-80
2022/07/29 01:57:00;;;;;;;2.42;1.33;;;14.90;99.90;;;;;;5073195;28;20182;-81
2022/07/29 01:59:27;;;;;;;3.45;1.48;;;15.00;99.90;;;;;;5070279;28;20094;-79
2022/07/29 02:01:55;;;;;;;2.97;1.48;;;15.00;99.90;;;;;;5067384;28;20051;-79
2022/07/29 02:04:22;;;;;;;1.52;1.08;;;14.90;99.90;;;;;;5071697;28;20127;-79
2022/07/29 02:06:50;;;;;;;3.22;1.52;;;14.90;99.90;;;;;;5072696;28;20051;-79
2022/07/29 02:09:19;;;;;;;3.25;1.77;;;14.90;99.90;;;;;;5072916;28;20072;-79
2022/07/29 02:11:53;;;;;;;4.88;1.30;;;14.90;99.90;;;;;;5063380;28;20174;-80
2022/07/29 02:14:20;;;;;;;9.57;3.92;;;14.90;99.90;;;;;;5068642;28;20499;-79
2022/07/29 02:16:49;;;;;;;3.25;1.70;;;14.90;99.90;;;;;;5066826;28;20048;-79
2022/07/29 02:19:18;;;;;;;4.30;1.65;;;14.90;99.90;;;;;;5054379;28;20056;-79
2022/07/29 02:21:45;;;;;;;2.70;1.35;;;14.90;99.90;;;;;;5090074;28;21040;-78
2022/07/29 02:24:12;;;;;;;3.30;1.38;;;14.80;99.90;;;;;;5085073;28;20081;-79
2022/07/29 02:26:41;;;;;;;2.83;1.50;;;14.80;99.90;;;;;;5073073;28;20048;-79
2022/07/29 02:29:08;;;;;;;2.83;1.30;;;14.80;99.90;;;;;;5070114;28;20032;-79
2022/07/29 02:31:36;;;;;;;3.13;1.60;;;14.80;99.90;;;;;;5065899;28;20035;-79
2022/07/29 02:34:08;;;;;;;1.95;1.58;;;14.80;99.90;;;;;;5076579;28;20032;-79
2022/07/29 02:36:34;;;;;;;3.00;1.35;;;14.80;99.90;;;;;;5059490;28;20054;-74
2022/07/29 02:39:03;;;;;;;1.92;1.38;;;14.80;99.90;;;;;;5073148;28;20052;-79
2022/07/29 02:41:49;;;;;;;6.20;2.35;;;14.80;99.90;;;;;;5074356;28;20040;-80
2022/07/29 02:44:18;;;;;;;5.95;1.80;;;14.80;99.90;;;;;;5076092;28;20058;-79
2022/07/29 02:46:52;;;;;;;4.63;1.77;;;14.80;99.90;;;;;;5067857;28;20143;-79
2022/07/29 02:49:29;;;;;;;3.28;1.27;;;14.80;99.90;;;;;;5076050;28;20490;-79
2022/07/29 02:52:00;;;;;;;2.85;1.70;;;14.80;99.90;;;;;;5058214;28;20044;-79
2022/07/29 02:54:32;;;;;;;2.08;1.35;;;14.80;99.90;;;;;;5073326;28;20050;-79
2022/07/29 02:57:03;;;;;;;4.57;2.22;;;14.80;99.90;;;;;;5074459;28;20040;-80
2022/07/29 02:59:32;;;;;;;7.28;3.97;;;14.70;99.90;;;;;;5073791;28;20048;-79
2022/07/29 03:01:59;;;;;;;4.45;1.65;;;14.70;99.90;;;;;;5077325;28;20113;-79
2022/07/29 03:04:28;;;;;;;4.72;1.52;;;14.70;99.90;;;;;;5074174;28;20063;-79
2022/07/29 03:06:54;;;;;;;3.45;1.52;;;14.70;99.90;;;;;;5075403;28;20043;-80
2022/07/29 03:09:21;;;;;;;4.28;1.67;;;14.70;99.90;;;;;;5069021;28;20051;-79
2022/07/29 03:11:47;;;;;;;2.30;1.10;;;14.60;99.90;;;;;;5067855;28;20032;-79
2022/07/29 03:14:13;;;;;;;2.63;1.30;;;14.60;99.90;;;;;;5077330;28;20067;-79
2022/07/29 03:16:40;;;;;;;3.80;1.55;;;14.60;99.90;;;;;;5076053;28;20044;-79
2022/07/29 03:19:06;;;;;;;5.78;1.50;;;14.50;99.90;;;;;;5072505;28;20047;-79
2022/07/29 03:21:31;;;;;;;1.98;1.35;;;14.50;99.90;;;;;;5061488;28;20054;-79
2022/07/29 03:23:57;;;;;;;6.00;1.92;;;14.50;99.90;;;;;;5075615;28;20050;-78
2022/07/29 03:26:23;;;;;;;6.13;1.90;;;14.50;99.90;;;;;;5076121;28;20032;-79
2022/07/29 03:28:48;;;;;;;4.47;1.40;;;14.50;99.90;;;;;;5075375;28;20048;-79
2022/07/29 03:31:14;;;;;;;2.15;1.15;;;14.40;99.90;;;;;;5075917;28;20040;-79
2022/07/29 03:33:40;;;;;;;5.63;1.30;;;14.50;99.90;;;;;;5086358;28;20032;-79
2022/07/29 03:36:05;;;;;;;1.60;1.30;;;14.40;99.90;;;;;;5094040;28;20058;-79
2022/07/29 03:38:35;;;;;;;2.13;1.50;;;14.40;99.90;;;;;;5076391;28;20044;-79
2022/07/29 03:41:07;;;;;;;3.13;1.13;;;14.40;99.90;;;;;;5074018;28;20419;-79
2022/07/29 03:43:36;;;;;;;3.80;1.50;;;14.40;99.90;;;;;;5075446;28;20479;-79
2022/07/29 03:46:06;;;;;;;2.85;1.50;;;14.30;99.90;;;;;;5071174;28;20153;-79
2022/07/29 03:48:35;;;;;;;3.38;1.40;;;14.40;99.90;;;;;;5071278;28;20044;-78
2022/07/29 03:51:01;;;;;;;1.50;1.20;;;14.30;99.90;;;;;;5068506;28;20122;-79
2022/07/29 03:53:27;;;;;;;3.03;1.58;;;14.30;99.90;;;;;;5056436;28;20119;-79
2022/07/29 03:55:58;;;;;;;3.47;1.77;;;14.30;99.90;;;;;;5090607;28;20069;-79
2022/07/29 03:58:26;;;;;;;2.60;1.52;;;14.30;99.90;;;;;;5087931;28;20040;-79
2022/07/29 04:00:52;;;;;;;3.38;1.48;;;14.30;99.90;;;;;;5070022;28;20051;-79
2022/07/29 04:03:18;;;;;;;3.22;1.20;;;14.30;99.90;;;;;;5073124;28;20123;-78
2022/07/29 04:05:44;;;;;;;2.90;1.35;;;14.20;99.90;;;;;;5073591;28;20146;-79
2022/07/29 04:08:09;;;;;;;2.70;1.88;;;14.30;99.90;;;;;;5072878;28;20059;-79
2022/07/29 04:10:35;;;;;;;2.78;1.23;;;14.30;99.90;;;;;;5074001;28;20042;-78
2022/07/29 04:13:01;;;;;;;2.75;1.50;;;14.30;99.90;;;;;;5076429;28;20538;-79
2022/07/29 04:15:28;;;;;;;12.35;1.67;;;14.30;99.90;;;;;;5073986;28;20043;-82
2022/07/29 04:17:54;;;;;;;4.35;1.50;;;14.30;99.90;;;;;;5059071;28;20036;-81
2022/07/29 04:20:20;;;;;;;4.38;2.22;;;14.20;99.90;;;;;;5076019;28;20044;-81
2022/07/29 04:22:45;;;;;;;5.93;1.60;;;14.30;99.90;;;;;;5060592;28;20043;-82
2022/07/29 04:25:11;;;;;;;1.92;1.33;;;14.30;99.90;;;;;;5060027;28;20032;-82
2022/07/29 04:27:59;;;;;;;5.10;1.92;;;14.20;99.90;;;;;;5077072;28;20035;-81
2022/07/29 04:30:22;;;;;;;4.68;1.92;;;14.30;99.90;;;;;;5077440;28;20568;-81
2022/07/29 04:32:47;;;;;;;3.60;2.13;;;14.30;99.90;;;;;;5077792;28;20028;-82
2022/07/29 04:35:13;;;;;;;1.83;1.40;;;14.30;99.90;;;;;;5077642;28;20044;-81
2022/07/29 04:37:38;;;;;;;1.98;1.38;;;14.20;99.90;;;;;;5060654;28;20071;-82
2022/07/29 04:40:05;;;;;;;8.55;2.58;;;14.20;99.90;;;;;;5075481;28;20642;-82
2022/07/29 04:42:30;;;;;;;3.70;2.00;;;14.30;99.90;;;;;;5058037;28;20456;-81
2022/07/29 04:44:56;;;;;;;2.40;1.67;;;14.30;99.90;;;;;;5088922;28;20085;-82
2022/07/29 04:47:22;;;;;;;2.97;1.48;;;14.30;99.90;;;;;;5075625;28;20059;-81
2022/07/29 04:49:47;;;;;;;2.20;1.48;;;14.30;99.90;;;;;;5102301;28;20079;-80
2022/07/29 04:52:13;;;;;;;3.75;1.45;;;14.20;99.90;;;;;;5114443;28;20414;-78
2022/07/29 04:54:38;;;;;;;3.88;1.65;;;14.30;99.90;;;;;;5107147;28;20052;-82
2022/07/29 04:57:04;;;;;;;4.07;1.60;;;14.30;99.90;;;;;;5098740;28;20050;-80
2022/07/29 04:59:30;;;;;;;6.43;1.95;;;14.30;99.90;;;;;;5091004;28;20071;-81
2022/07/29 05:01:55;;;;;;;2.20;1.40;;;14.30;99.90;;;;;;5106969;28;20062;-82
2022/07/29 05:04:21;;;;;;;2.72;1.65;;;14.20;99.90;;;;;;5070249;28;20024;-82
2022/07/29 05:06:47;;;;;;;3.70;1.20;;;14.30;99.90;;;;;;5073142;28;20035;-81
2022/07/29 05:09:13;;;;;;;3.25;1.40;;;14.30;99.90;;;;;;5090153;28;20400;-81
2022/07/29 05:11:38;;;;;;;5.95;1.67;;;14.30;99.90;;;;;;5077994;28;20028;-81
2022/07/29 05:14:04;;;;;;;4.40;1.45;;;14.30;99.90;;;;;;5092551;28;20031;-80
2022/07/29 05:16:29;;;;;;;3.72;1.73;;;14.30;99.90;;;;;;5057571;28;20743;-82
2022/07/29 05:18:55;;;;;;;3.08;1.65;;;14.30;99.90;;;;;;5075036;28;20044;-82
2022/07/29 05:21:21;;;;;;;5.28;1.50;;;14.40;99.90;;;;;;5057321;28;20117;-81
2022/07/29 05:23:46;;;;;;;4.82;2.13;;;14.50;99.90;;;;;;5057850;28;20396;-82
2022/07/29 05:26:12;;;;;;;3.78;1.60;;;14.50;99.90;;;;;;5074211;28;20043;-81
2022/07/29 05:28:37;;;;;;;6.93;1.75;;;14.60;99.90;;;;;;5060195;28;20123;-81
2022/07/29 05:31:03;;;;;;;5.32;1.70;;;14.70;99.90;;;;;;5070435;28;20044;-81
2022/07/29 05:33:29;;;;;;;9.43;1.92;;;14.80;99.90;;;;;;5038383;28;20051;-81
2022/07/29 05:35:54;;;;;;;3.55;1.70;;;14.90;99.90;;;;;;5054326;28;20060;-80
2022/07/29 05:38:20;;;;;;;3.85;1.77;;;15.00;99.90;;;;;;5054100;28;20142;-82
2022/07/29 05:40:45;;;;;;;3.90;1.73;;;15.30;99.90;;;;;;5090798;28;20481;-82
2022/07/29 05:43:11;;;;;;;4.60;1.60;;;15.50;99.90;;;;;;5075354;28;20035;-82
2022/07/29 05:45:38;;;;;;;4.75;1.60;;;15.70;99.90;;;;;;5054614;28;20045;-80
2022/07/29 05:48:04;;;;;;;4.05;1.50;;;16.10;99.90;;;;;;5072221;28;20029;-81
2022/07/29 05:50:30;;;;;;;5.13;1.50;;;16.40;99.90;;;;;;5080771;28;20432;-82
2022/07/29 05:52:55;;;;;;;2.90;2.28;;;16.60;99.90;;;;;;5063267;28;20040;-81
2022/07/29 05:55:21;;;;;;;5.65;1.70;;;16.80;99.90;;;;;;5102914;28;20032;-81
2022/07/29 05:57:46;;;;;;;8.23;1.80;;;17.20;99.90;;;;;;5091678;28;20047;-82
2022/07/29 06:00:12;;;;;;;3.88;1.77;;;17.20;99.90;;;;;;5097395;28;20067;-81
2022/07/29 06:02:38;;;;;;;4.38;1.70;;;17.00;99.90;;;;;;5084498;28;20036;-82
2022/07/29 06:05:04;;;;;;;4.78;1.80;;;16.90;99.90;;;;;;5056311;28;20044;-82
2022/07/29 06:07:30;;;;;;;4.75;1.75;;;16.80;99.90;;;;;;5056478;28;20139;-81
2022/07/29 06:09:56;;;;;;;3.58;1.65;;;16.80;99.90;;;;;;5051884;28;20038;-81
2022/07/29 06:12:21;;;;;;;6.22;1.73;;;16.80;99.90;;;;;;5058659;28;20099;-82
2022/07/29 06:14:47;;;;;;;7.15;1.77;;;16.80;99.90;;;;;;5075528;28;20036;-82
2022/07/29 06:17:12;;;;;;;3.95;1.63;;;16.70;99.90;;;;;;5074871;28;20483;-82
2022/07/29 06:19:38;;;;;;;6.05;1.67;;;16.60;99.90;;;;;;5084673;28;20125;-83
2022/07/29 06:22:04;;;;;;;5.43;1.55;;;16.50;99.90;;;;;;5069899;28;20055;-82
2022/07/29 06:24:30;;;;;;;7.45;1.50;;;16.50;99.90;;;;;;5073820;28;20650;-82
2022/07/29 06:26:56;;;;;;;3.10;1.75;;;16.40;99.90;;;;;;5057128;28;20040;-82
2022/07/29 06:29:21;;;;;;;3.33;1.45;;;16.30;99.90;;;;;;5094173;28;20694;-81
2022/07/29 06:31:47;;;;;;;1.70;1.35;;;16.10;99.90;;;;;;5062658;28;20044;-81
2022/07/29 06:34:12;;;;;;;5.57;1.92;;;16.10;99.90;;;;;;5074667;28;20040;-81
2022/07/29 06:36:38;;;;;;;4.28;1.95;;;15.90;99.90;;;;;;5075790;28;20495;-81
2022/07/29 06:39:08;;;;;;;4.07;1.58;;;15.90;99.90;;;;;;5055233;28;20106;-82
2022/07/29 06:41:34;;;;;;;3.47;1.70;;;15.90;99.90;;;;;;5083042;28;20075;-82
2022/07/29 06:43:59;;;;;;;3.60;1.48;;;15.90;99.90;;;;;;5068233;28;20035;-82
2022/07/29 06:46:25;;;;;;;5.05;2.33;;;15.90;99.90;;;;;;5049479;28;20418;-82
2022/07/29 06:48:51;;;;;;;4.43;1.77;;;15.80;99.90;;;;;;5070217;28;20380;-82
2022/07/29 06:51:17;;;;;;;4.75;1.63;;;15.90;99.90;;;;;;5068167;28;20055;-82
2022/07/29 06:53:43;;;;;;;5.40;1.90;;;15.90;99.90;;;;;;5098581;28;20051;-82
2022/07/29 06:56:09;;;;;;;4.25;1.83;;;15.90;99.90;;;;;;5094224;28;20040;-82
2022/07/29 06:58:35;;;;;;;7.05;1.83;;;15.90;99.90;;;;;;5075871;28;20051;-82
2022/07/29 07:01:03;;;;;;;3.78;2.10;;;15.90;99.90;;;;;;5074905;28;20115;-82
2022/07/29 07:03:29;;;;;;;3.03;2.28;;;15.90;99.90;;;;;;5074738;28;20040;-81
2022/07/29 07:05:55;;;;;;;5.22;1.52;;;16.00;99.90;;;;;;5058510;28;20052;-81
2022/07/29 07:08:22;;;;;;;7.15;1.63;;;16.00;99.90;;;;;;5058426;28;20072;-81
2022/07/29 07:10:48;;;;;;;4.68;1.63;;;16.00;99.90;;;;;;5061036;28;20046;-81
2022/07/29 07:13:16;;;;;;;5.78;1.48;;;16.00;99.90;;;;;;5060350;28;20510;-82
2022/07/29 07:15:43;;;;;;;3.88;1.42;;;16.00;99.90;;;;;;5078881;28;20503;-83
2022/07/29 07:18:08;;;;;;;6.15;2.20;;;16.10;99.90;;;;;;5078144;28;20039;-83
2022/07/29 07:20:35;;;;;;;4.30;1.52;;;16.20;99.90;;;;;;5059325;28;20120;-83
2022/07/29 07:23:00;;;;;;;4.55;1.63;;;16.20;99.90;;;;;;5059175;28;20464;-83
2022/07/29 07:25:26;;;;;;;6.05;1.90;;;16.40;99.90;;;;;;5059773;28;20067;-82
2022/07/29 07:27:52;;;;;;;6.35;1.70;;;16.40;99.90;;;;;;5041302;28;20036;-85
2022/07/29 07:30:17;;;;;;;5.15;2.05;;;16.50;99.90;;;;;;5040024;28;20032;-83
2022/07/29 07:32:43;;;;;;;2.83;1.67;;;16.50;99.90;;;;;;5057657;28;20052;-83
2022/07/29 07:35:10;;;;;;;3.17;1.40;;;16.70;99.90;;;;;;5076099;28;20036;-83
2022/07/29 07:37:35;;;;;;;4.35;1.73;;;16.80;99.90;;;;;;5058410;28;20044;-83
2022/07/29 07:40:02;;;;;;;5.47;1.90;;;16.80;99.90;;;;;;5056925;28;20518;-84
2022/07/29 07:42:28;;;;;;;5.82;2.15;;;16.90;99.90;;;;;;5074904;28;20041;-83
2022/07/29 07:44:54;;;;;;;2.90;1.45;;;16.90;99.90;;;;;;5057558;28;20127;-83
2022/07/29 07:47:19;;;;;;;7.20;1.85;;;16.90;99.90;;;;;;5057383;28;20048;-82
2022/07/29 07:49:52;;;;;;;4.05;1.83;;;17.00;99.90;;;;;;5075063;28;20043;-82
2022/07/29 07:52:19;;;;;;;4.25;1.92;;;16.90;99.90;;;;;;5075669;28;20518;-82
2022/07/29 07:54:45;;;;;;;4.18;1.70;;;17.00;99.90;;;;;;5056691;28;20049;-83
2022/07/29 07:57:11;;;;;;;4.38;1.90;;;17.10;99.90;;;;;;5057537;28;20051;-81
2022/07/29 07:59:38;;;;;;;4.45;1.98;;;17.10;99.90;;;;;;5056448;28;20080;-81
2022/07/29 08:02:04;;;;;;;3.20;1.63;;;17.20;99.90;;;;;;5060038;28;20090;-81
2022/07/29 08:04:29;;;;;;;8.55;2.17;;;17.30;99.90;;;;;;5073471;28;20475;-80
2022/07/29 08:06:57;;;;;;;4.82;1.90;;;17.30;99.90;;;;;;5076652;28;20044;-81
2022/07/29 08:09:24;;;;;;;5.78;1.90;;;17.30;99.90;;;;;;5073710;28;20043;-81
2022/07/29 08:11:51;;;;;;;5.32;1.95;;;17.30;99.90;;;;;;5056323;28;20044;-81
2022/07/29 08:14:16;;;;;;;7.10;2.00;;;17.40;99.90;;;;;;5056225;28;20032;-80
2022/07/29 08:16:42;;;;;;;4.70;2.08;;;17.50;99.90;;;;;;5040349;28;20499;-81
2022/07/29 08:19:09;;;;;;;8.02;2.17;;;17.50;99.90;;;;;;5074657;28;20044;-81
2022/07/29 08:21:35;;;;;;;3.53;2.30;;;17.50;99.90;;;;;;5057867;28;20452;-81
2022/07/29 08:26:45;;;;;;;7.10;2.17;;;17.40;99.90;;;;;;5069639;28;20047;-80
2022/07/29 08:29:11;;;;;;;6.13;2.80;;;17.40;99.90;;;;;;5076952;28;20036;-81
2022/07/29 08:31:38;;;;;;;8.35;2.70;;;17.40;99.90;;;;;;5087947;28;20511;-81
2022/07/29 08:34:04;;;;;;;3.60;2.03;;;17.40;99.90;;;;;;5074238;28;20028;-80
2022/07/29 08:36:30;;;;;;;9.20;2.45;;;17.30;99.90;;;;;;5070747;28;20048;-80
2022/07/29 08:38:56;;;;;;;4.03;1.90;;;17.20;99.90;;;;;;5092564;28;20090;-81
2022/07/29 08:41:22;;;;;;;4.85;2.47;;;17.20;99.90;;;;;;5056815;28;20063;-81
2022/07/29 08:43:50;;;;;;;7.65;2.78;;;17.10;99.90;;;;;;5043051;28;20129;-80
2022/07/29 08:46:16;;;;;;;5.72;2.00;;;17.00;99.90;;;;;;5057336;28;20765;-81
2022/07/29 08:48:43;;;;;;;4.45;2.17;;;16.90;99.90;;;;;;5072804;28;20071;-80
2022/07/29 08:51:14;;;;;;;10.15;2.67;;;16.90;99.90;;;;;;5075091;28;20479;-80
2022/07/29 08:53:43;;;;;;;6.65;3.05;;;16.80;99.90;;;;;;5058739;28;20036;-80
2022/07/29 08:56:21;;;;;;;6.45;2.60;;;16.80;99.90;;;;;;5085593;28;20050;-80
2022/07/29 08:58:48;;;;;;;5.07;2.25;;;16.90;99.90;;;;;;5085391;28;20035;-81
2022/07/29 09:01:16;;;;;;;4.93;2.35;;;17.00;99.90;;;;;;5101849;28;20724;-81
2022/07/29 09:03:44;;;;;;;9.88;3.15;;;17.10;99.90;;;;;;5055161;28;20464;-81
2022/07/29 09:06:14;;;;;;;4.93;2.80;;;17.20;99.90;;;;;;5060308;28;20063;-81
2022/07/29 09:08:40;;;;;;;5.63;2.90;;;17.20;99.90;;;;;;5058458;28;20036;-80
2022/07/29 09:11:07;;;;;;;5.80;2.95;;;17.30;99.90;;;;;;5075044;28;20112;-80
2022/07/29 09:13:33;;;;;;;7.22;2.40;;;17.30;99.90;;;;;;5074997;28;20048;-80
2022/07/29 09:15:59;;;;;;;4.53;2.33;;;17.30;99.90;;;;;;5091536;28;21017;-81
2022/07/29 09:18:54;;;;;;;4.22;2.35;;;17.40;99.90;;;;;;5072253;28;20055;-80
2022/07/29 09:24:11;;;;;;;7.57;2.70;;;17.60;99.90;;;;;;5054680;28;20142;-81
2022/07/29 09:26:43;;;;;;;5.38;2.40;;;17.60;99.90;;;;;;5061469;28;20032;-81
2022/07/29 09:29:21;;;;;;;5.60;2.65;;;17.60;99.90;;;;;;5066750;28;20103;-81
2022/07/29 09:31:48;;;;;;;4.72;2.17;;;17.70;99.90;;;;;;5042478;28;20037;-81
2022/07/29 09:34:16;;;;;;;5.35;2.00;;;17.80;99.90;;;;;;5091953;28;20042;-81
2022/07/29 09:36:44;;;;;;;4.20;2.25;;;17.90;99.90;;;;;;5073277;28;20447;-82
2022/07/29 09:39:10;;;;;;;7.97;2.80;;;18.00;99.90;;;;;;5065228;28;20083;-81
2022/07/29 09:41:54;;;;;;;4.88;2.13;;;18.10;99.90;;;;;;5054184;28;20487;-81
2022/07/29 09:44:21;;;;;;;5.38;1.90;;;18.20;99.90;;;;;;5074600;28;20114;-81
2022/07/29 09:47:05;;;;;;;8.05;2.33;;;18.20;99.90;;;;;;5073991;28;20036;-81
2022/07/29 09:49:33;;;;;;;4.20;1.80;;;18.10;99.90;;;;;;5074239;28;20044;-82
2022/07/29 09:52:00;;;;;;;9.07;2.08;;;18.10;99.90;;;;;;5057447;28;20071;-82
2022/07/29 09:54:27;;;;;;;6.25;2.55;;;18.20;99.90;;;;;;5073006;28;20079;-82
2022/07/29 09:56:54;;;;;;;4.90;1.83;;;18.30;99.90;;;;;;5073616;28;20044;-83
2022/07/29 09:59:22;;;;;;;6.38;2.30;;;18.30;99.90;;;;;;5041786;28;20032;-82
2022/07/29 10:01:49;;;;;;;5.95;3.50;;;18.30;99.90;;;;;;5072844;28;20044;-82
2022/07/29 10:04:16;;;;;;;4.57;2.33;;;18.30;99.90;;;;;;5072710;28;20048;-82
2022/07/29 10:07:00;;;;;;;5.85;2.50;;;18.40;99.90;;;;;;5091925;28;20466;-82
2022/07/29 10:09:26;;;;;;;5.13;2.22;;;18.50;99.90;;;;;;5090796;28;20521;-82
2022/07/29 10:12:15;;;;;;;6.60;2.33;;;18.70;99.90;;;;;;5073205;28;20479;-82
2022/07/29 10:14:41;;;;;;;5.18;1.95;;;18.90;99.90;;;;;;5057150;28;20089;-82
2022/07/29 10:17:09;;;;;;;11.05;2.33;;;19.00;99.90;;;;;;5073434;28;20036;-82
2022/07/29 10:19:36;;;;;;;3.33;2.38;;;19.20;99.90;;;;;;5072059;28;20494;-81
2022/07/29 10:22:05;;;;;;;5.70;2.25;;;19.40;99.90;;;;;;5073138;28;20047;-82
2022/07/29 10:24:31;;;;;;;6.63;2.15;;;19.50;99.90;;;;;;5062192;28;20120;-82
2022/07/29 10:27:00;;;;;;;7.63;2.70;;;19.60;99.90;;;;;;5037197;28;20036;-82
2022/07/29 10:29:26;;;;;;;3.42;2.38;;;19.80;99.90;;;;;;5037762;28;20461;-81
2022/07/29 10:32:13;;;;;;;5.68;2.47;;;20.00;99.90;;;;;;5053601;28;20123;-82
2022/07/29 10:34:54;;;;;;;4.50;2.53;;;20.20;99.90;;;;;;5054442;28;20391;-82
2022/07/29 10:37:55;;;;;;;7.20;2.50;;;20.30;99.90;;;;;;5054197;28;20075;-82
2022/07/29 10:43:19;;;;;;;8.63;2.50;;;20.70;99.90;;;;;;5054888;28;20051;-81
2022/07/29 10:45:48;;;;;;;6.97;2.53;;;20.80;99.90;;;;;;5057804;28;20074;-85
2022/07/29 10:48:14;;;;;;;5.35;2.50;;;21.00;99.90;;;;;;5077415;28;20098;-85
2022/07/29 10:51:00;;;;;;;4.85;2.97;;;21.10;99.90;;;;;;5058265;28;20036;-86
2022/07/29 10:53:49;;;;;;;4.63;2.55;;;21.20;99.90;;;;;;5063084;28;20507;-85
2022/07/29 10:56:35;;;;;;;6.88;2.78;;;21.40;99.90;;;;;;5060924;28;20056;-86
2022/07/29 10:59:19;;;;;;;4.15;2.70;;;21.60;99.90;;;;;;5042989;28;20441;-84
2022/07/29 11:01:46;;;;;;;10.15;2.90;;;22.00;99.90;;;;;;5057007;28;20040;-83
2022/07/29 11:04:12;;;;;;;6.50;2.30;;;22.20;99.90;;;;;;5074789;28;20064;-83
2022/07/29 11:07:02;;;;;;;3.75;2.30;;;22.40;99.90;;;;;;5039900;28;20430;-84
2022/07/29 11:09:30;;;;;;;6.13;2.55;;;22.40;99.90;;;;;;5039678;28;20052;-83
2022/07/29 11:11:56;;;;;;;8.32;2.38;;;22.40;99.90;;;;;;5040123;28;20045;-83
2022/07/29 11:14:58;;;;;;;7.68;2.78;;;22.30;99.90;;;;;;5060213;28;20045;-83
2022/07/29 11:17:25;;;;;;;2.70;2.28;;;22.20;99.90;;;;;;5056534;28;20543;-83
2022/07/29 11:19:51;;;;;;;5.40;2.53;;;21.90;99.90;;;;;;5039534;28;20051;-83
2022/07/29 11:22:34;;;;;;;5.68;2.63;;;21.70;99.90;;;;;;5056520;28;20075;-83
2022/07/29 11:25:16;;;;;;;5.60;2.58;;;21.60;99.90;;;;;;5056872;28;20071;-83
2022/07/29 11:27:43;;;;;;;7.60;3.00;;;21.70;99.90;;;;;;5056781;28;20119;-83
2022/07/29 11:30:11;;;;;;;4.82;2.35;;;21.70;99.90;;;;;;5056629;28;20500;-83
2022/07/29 11:32:39;;;;;;;5.70;3.00;;;21.60;99.90;;;;;;5041105;28;20424;-83
2022/07/29 11:35:23;;;;;;;6.38;3.17;;;21.60;99.90;;;;;;5068709;28;20040;-84
2022/07/29 11:38:26;;;;;;;4.22;2.72;;;21.60;99.90;;;;;;5060363;28;20114;-84
2022/07/29 11:41:17;;;;;;;7.25;3.15;;;21.60;99.90;;;;;;5073931;28;20556;-84
2022/07/29 11:43:55;;;;;;;5.68;2.75;;;21.60;99.90;;;;;;5066829;28;20535;-84
2022/07/29 11:46:50;;;;;;;5.00;2.83;;;21.80;99.90;;;;;;5073872;28;20040;-84
2022/07/29 11:49:26;;;;;;;4.43;2.42;;;21.90;99.90;;;;;;5073037;28;20036;-85
2022/07/29 11:51:53;;;;;;;3.42;2.42;;;22.00;99.90;;;;;;5075504;28;20059;-85
2022/07/29 11:54:49;;;;;;;6.45;2.78;;;22.00;99.90;;;;;;5060320;28;20047;-84
2022/07/29 11:57:19;;;;;;;5.13;3.30;;;22.00;99.90;;;;;;5056503;28;20056;-84
2022/07/29 11:59:47;;;;;;;6.00;2.33;;;22.00;99.90;;;;;;5082905;28;20055;-84
2022/07/29 12:02:14;;;;;;;5.05;2.70;;;22.00;99.90;;;;;;5060409;28;20036;-84
2022/07/29 12:04:55;;;;;;;5.75;2.47;;;22.10;99.90;;;;;;5072548;28;20048;-84
2022/07/29 12:07:28;;;;;;;4.82;2.53;;;22.20;99.90;;;;;;5056998;28;20040;-83
2022/07/29 12:09:53;;;;;;;6.88;3.13;;;22.40;99.90;;;;;;5059222;28;20054;-84
2022/07/29 12:12:20;;;;;;;8.60;2.88;;;22.50;99.90;;;;;;5075886;28;20558;-84
2022/07/29 12:14:46;;;;;;;6.15;2.47;;;22.50;99.90;;;;;;5074262;28;20082;-84
2022/07/29 12:17:32;;;;;;;9.55;2.90;;;22.60;99.90;;;;;;5092709;28;20113;-84
2022/07/29 12:20:02;;;;;;;7.82;2.45;;;22.70;99.90;;;;;;5074733;28;20127;-84
2022/07/29 12:22:37;;;;;;;4.90;2.67;;;22.60;99.90;;;;;;5075247;28;20036;-84
2022/07/29 12:25:07;;;;;;;3.58;2.35;;;22.70;99.90;;;;;;5075164;28;20482;-83
2022/07/29 12:27:33;;;;;;;5.17;2.20;;;22.70;99.90;;;;;;5074735;28;20044;-83
2022/07/29 12:30:01;;;;;;;7.63;2.83;;;22.80;99.90;;;;;;5074775;28;20032;-84
2022/07/29 12:32:36;;;;;;;8.10;3.20;;;22.90;99.90;;;;;;5058125;28;20040;-84
2022/07/29 12:35:16;;;;;;;6.20;2.83;;;22.90;99.90;;;;;;5074863;28;20054;-84
2022/07/29 12:37:44;;;;;;;3.33;2.42;;;23.00;99.90;;;;;;5074826;28;20048;-84
2022/07/29 12:40:12;;;;;;;5.35;2.45;;;23.10;99.90;;;;;;5057954;28;20043;-81
2022/07/29 12:42:39;;;;;;;3.65;2.25;;;23.20;99.90;;;;;;5058309;28;20080;-80
2022/07/29 12:45:05;;;;;;;5.68;2.53;;;23.20;99.90;;;;;;5075615;28;20048;-80
2022/07/29 12:47:32;;;;;;;8.40;2.70;;;23.20;99.90;;;;;;5058371;28;20076;-80
2022/07/29 12:50:17;;;;;;;6.85;2.85;;;23.20;99.90;;;;;;5058166;28;20491;-80
2022/07/29 12:52:45;;;;;;;8.10;2.50;;;23.30;99.90;;;;;;5058441;28;20044;-80
2022/07/29 12:55:11;;;;;;;6.18;2.17;;;23.40;99.90;;;;;;5060444;28;20039;-80
2022/07/29 12:57:48;;;;;;;8.80;2.20;;;23.50;99.90;;;;;;5074111;28;20487;-80
2022/07/29 13:00:15;;;;;;;5.65;2.47;;;23.50;99.90;;;;;;5076921;28;20028;-81
2022/07/29 13:02:42;;;;;;;5.80;2.00;;;23.40;99.90;;;;;;5072593;28;20044;-80
2022/07/29 13:05:09;;;;;;;3.92;1.98;;;23.40;99.90;;;;;;5063616;28;20548;-80
2022/07/29 13:07:36;;;;;;;4.57;2.17;;;23.50;99.90;;;;;;5100793;28;20043;-80